Cielo Di Vaiano — D5AQ2 — position and weather

sailwx.info

Track history (hours):
 
Tides and Currents Weather Stations Pressure Air Temp Water Temp Dewpoint Dewpoint Depression Visibility Wind Speed Wind Dir Waves Ship Positions

Cielo Di Vaiano

Last reported at 2017-Nov-08 09:37 UTC. Time now 2017-Nov-18 15:29 UTC.
Position N 37°13' W 001°04'.
Warning: this ship's position is 10 days out of date.

Length 183 m; draft 6.9 m.

Type: Ship. MMSI: 636015421.

Date/timePositionNaut miles runAvg speedWind from/ knotsBaromVisibWave heightAir tempDewpointWater temp
2017-Nov-08 09:37N 37°13' W 001°04'213.6
2017-Nov-08 09:30N 37°14' W 001°02'713.6
2017-Nov-08 09:00N 37°19' W 000°56'713.5
2017-Nov-08 08:30N 37°23' W 000°50'713.1
2017-Nov-08 08:00N 37°28' W 000°44'612.9
2017-Nov-08 07:30N 37°32' W 000°38'612.8
2017-Nov-08 07:00N 37°37' W 000°32'612.7
2017-Nov-08 06:30N 37°42' W 000°28'612.6
2017-Nov-08 06:00N 37°47' W 000°23'612.5
2017-Nov-08 05:30N 37°52' W 000°19'612.7
2017-Nov-08 05:00N 37°58' W 000°15'612.7
2017-Nov-08 04:30N 38°03' W 000°11'612.3
2017-Nov-08 04:00N 38°08' W 000°06'612.1
2017-Nov-08 03:30N 38°13' W 000°01'712.0
2017-Nov-08 02:55N 38°19' E 000°03'  
2017-Nov-01 02:00N 37°21' W 000°48'612.6
2017-Nov-01 01:30N 37°17' W 000°54'712.6
2017-Nov-01 00:59N 37°12' W 001°00'612.8
2017-Nov-01 00:30N 37°08' W 001°06'21212.8
2017-Oct-31 07:52N 35°60' W 005°16'513.2
2017-Oct-31 07:30N 35°59' W 005°22'12312.3
2017-Oct-30 21:33N 36°15' W 007°52'313.4
2017-Oct-30 21:18N 36°16' W 007°56'3013.3
2017-Oct-30 19:01N 36°24' W 008°33'013.6
2017-Oct-30 19:00N 36°24' W 008°33'713.3
2017-Oct-30 18:31N 36°26' W 008°41'712.8
2017-Oct-30 17:59N 36°27' W 008°49'612.7
2017-Oct-30 17:29N 36°29' W 008°56'613.0
2017-Oct-30 17:00N 36°31' W 009°04'813.4
2017-Oct-30 16:26N 36°33' W 009°13'713.3
2017-Oct-30 15:55N 36°37' W 009°20'613.8
2017-Oct-30 15:30N 36°41' W 009°25'714.0
2017-Oct-30 15:01N 36°46' W 009°31'713.8
2017-Oct-30 14:30N 36°52' W 009°35'1414.0
2017-Oct-30 13:30N 37°06' W 009°39'713.8
2017-Oct-30 13:00N 37°13' W 009°40'713.8
2017-Oct-30 12:31N 37°19' W 009°42'713.7
2017-Oct-30 12:00N 37°26' W 009°45'713.4
2017-Oct-30 11:31N 37°32' W 009°46'713.2
2017-Oct-30 11:00N 37°39' W 009°48'713.2
2017-Oct-30 10:30N 37°45' W 009°50'713.3
2017-Oct-30 10:00N 37°52' W 009°52'713.4
2017-Oct-30 09:30N 37°58' W 009°54'713.4
2017-Oct-30 09:01N 38°05' W 009°56'713.3
2017-Oct-30 08:30N 38°11' W 009°58'713.4
2017-Oct-30 08:01N 38°18' W 009°59'714.1
2017-Oct-30 07:30N 38°25' W 010°02'714.1
2017-Oct-30 07:00N 38°32' W 010°04'713.1
2017-Oct-30 06:30N 38°38' W 010°05'713.3
2017-Oct-30 06:00N 38°45' W 010°06'713.2
2017-Oct-30 05:30N 38°51' W 010°07'713.0
2017-Oct-30 05:00N 38°58' W 010°06'612.6
2017-Oct-30 04:30N 39°04' W 010°07'612.8
2017-Oct-30 04:00N 39°10' W 010°08'713.2
2017-Oct-30 03:30N 39°17' W 010°07'713.4
2017-Oct-30 03:00N 39°24' W 010°07'713.3
2017-Oct-30 02:30N 39°30' W 010°07'713.2
2017-Oct-30 02:00N 39°37' W 010°07'713.2
2017-Oct-30 01:30N 39°44' W 010°06'713.1
2017-Oct-30 01:00N 39°50' W 010°07'613.0
2017-Oct-30 00:30N 39°57' W 010°07'713.2
2017-Oct-30 00:00N 40°03' W 010°07'713.6
2017-Oct-29 23:30N 40°10' W 010°07'713.9
2017-Oct-29 23:00N 40°17' W 010°07'713.8
2017-Oct-29 22:30N 40°24' W 010°07'714.0
2017-Oct-29 22:00N 40°31' W 010°07'714.3
2017-Oct-29 21:30N 40°38' W 010°06'714.3
2017-Oct-29 21:00N 40°45' W 010°07'7813.7
2017-Oct-29 15:19N 42°03' W 010°07'513.6
2017-Oct-29 14:58N 42°08' W 010°07'614.0
2017-Oct-29 14:30N 42°14' W 010°06'  
Track history (hours):
 
Tides and Currents Weather Stations Pressure Air Temp Water Temp Dewpoint Dewpoint Depression Visibility Wind Speed Wind Dir Waves Ship Positions

Cielo Di Vaiano

Last reported at 2017-Nov-08 09:37 UTC. Time now 2017-Nov-18 15:29 UTC.
Position N 37°13' W 001°04'.
Warning: this ship's position is 10 days out of date.

Length 183 m; draft 6.9 m.

Type: Ship. MMSI: 636015421.

Date/timePositionNaut miles runAvg speedWind from/ knotsBaromVisibWave heightAir tempDewpointWater temp
2017-Nov-08 09:37N 37°13' W 001°04'213.6
2017-Nov-08 09:30N 37°14' W 001°02'713.6
2017-Nov-08 09:00N 37°19' W 000°56'713.5
2017-Nov-08 08:30N 37°23' W 000°50'713.1
2017-Nov-08 08:00N 37°28' W 000°44'612.9
2017-Nov-08 07:30N 37°32' W 000°38'612.8
2017-Nov-08 07:00N 37°37' W 000°32'612.7
2017-Nov-08 06:30N 37°42' W 000°28'612.6
2017-Nov-08 06:00N 37°47' W 000°23'612.5
2017-Nov-08 05:30N 37°52' W 000°19'612.7
2017-Nov-08 05:00N 37°58' W 000°15'612.7
2017-Nov-08 04:30N 38°03' W 000°11'612.3
2017-Nov-08 04:00N 38°08' W 000°06'612.1
2017-Nov-08 03:30N 38°13' W 000°01'712.0
2017-Nov-08 02:55N 38°19' E 000°03'  
2017-Nov-01 02:00N 37°21' W 000°48'612.6
2017-Nov-01 01:30N 37°17' W 000°54'712.6
2017-Nov-01 00:59N 37°12' W 001°00'612.8
2017-Nov-01 00:30N 37°08' W 001°06'21212.8
2017-Oct-31 07:52N 35°60' W 005°16'513.2
2017-Oct-31 07:30N 35°59' W 005°22'12312.3
2017-Oct-30 21:33N 36°15' W 007°52'313.4
2017-Oct-30 21:18N 36°16' W 007°56'3013.3
2017-Oct-30 19:01N 36°24' W 008°33'013.6
2017-Oct-30 19:00N 36°24' W 008°33'713.3
2017-Oct-30 18:31N 36°26' W 008°41'712.8
2017-Oct-30 17:59N 36°27' W 008°49'612.7
2017-Oct-30 17:29N 36°29' W 008°56'613.0
2017-Oct-30 17:00N 36°31' W 009°04'813.4
2017-Oct-30 16:26N 36°33' W 009°13'713.3
2017-Oct-30 15:55N 36°37' W 009°20'613.8
2017-Oct-30 15:30N 36°41' W 009°25'714.0
2017-Oct-30 15:01N 36°46' W 009°31'713.8
2017-Oct-30 14:30N 36°52' W 009°35'1414.0
2017-Oct-30 13:30N 37°06' W 009°39'713.8
2017-Oct-30 13:00N 37°13' W 009°40'713.8
2017-Oct-30 12:31N 37°19' W 009°42'713.7
2017-Oct-30 12:00N 37°26' W 009°45'713.4
2017-Oct-30 11:31N 37°32' W 009°46'713.2
2017-Oct-30 11:00N 37°39' W 009°48'713.2
2017-Oct-30 10:30N 37°45' W 009°50'713.3
2017-Oct-30 10:00N 37°52' W 009°52'713.4
2017-Oct-30 09:30N 37°58' W 009°54'713.4
2017-Oct-30 09:01N 38°05' W 009°56'713.3
2017-Oct-30 08:30N 38°11' W 009°58'713.4
2017-Oct-30 08:01N 38°18' W 009°59'714.1
2017-Oct-30 07:30N 38°25' W 010°02'714.1
2017-Oct-30 07:00N 38°32' W 010°04'713.1
2017-Oct-30 06:30N 38°38' W 010°05'713.3
2017-Oct-30 06:00N 38°45' W 010°06'713.2
2017-Oct-30 05:30N 38°51' W 010°07'713.0
2017-Oct-30 05:00N 38°58' W 010°06'612.6
2017-Oct-30 04:30N 39°04' W 010°07'612.8
2017-Oct-30 04:00N 39°10' W 010°08'713.2
2017-Oct-30 03:30N 39°17' W 010°07'713.4
2017-Oct-30 03:00N 39°24' W 010°07'713.3
2017-Oct-30 02:30N 39°30' W 010°07'713.2
2017-Oct-30 02:00N 39°37' W 010°07'713.2
2017-Oct-30 01:30N 39°44' W 010°06'713.1
2017-Oct-30 01:00N 39°50' W 010°07'613.0
2017-Oct-30 00:30N 39°57' W 010°07'713.2
2017-Oct-30 00:00N 40°03' W 010°07'713.6
2017-Oct-29 23:30N 40°10' W 010°07'713.9
2017-Oct-29 23:00N 40°17' W 010°07'713.8
2017-Oct-29 22:30N 40°24' W 010°07'714.0
2017-Oct-29 22:00N 40°31' W 010°07'714.3
2017-Oct-29 21:30N 40°38' W 010°06'714.3
2017-Oct-29 21:00N 40°45' W 010°07'7813.7
2017-Oct-29 15:19N 42°03' W 010°07'513.6
2017-Oct-29 14:58N 42°08' W 010°07'614.0
2017-Oct-29 14:30N 42°14' W 010°06'  

Dump ship's entire track history